sensor_id;sensor_type;location;lat;lon;timestamp;pressure;altitude;pressure_sealevel;temperature;humidity
31403;BME280;18039;52.188;21.024;2023-04-01T00:01:47;75125.59;;;-141.45;100.00
31403;BME280;18039;52.188;21.024;2023-04-01T00:04:14;75125.59;;;-141.45;100.00
31403;BME280;18039;52.188;21.024;2023-04-01T00:06:42;75125.59;;;-141.45;100.00
31403;BME280;18039;52.188;21.024;2023-04-01T00:09:10;75123.56;;;-141.45;100.00
31403;BME280;18039;52.188;21.024;2023-04-01T00:11:37;75121.53;;;-141.45;100.00
31403;BME280;18039;52.188;21.024;2023-04-01T00:14:06;75121.53;;;-141.45;100.00
31403;BME280;18039;52.188;21.024;2023-04-01T00:16:33;75121.53;;;-141.45;100.00
31403;BME280;18039;52.188;21.024;2023-04-01T00:19:00;75125.59;;;-141.45;100.00
31403;BME280;18039;52.188;21.024;2023-04-01T00:21:27;75121.53;;;-141.45;100.00
31403;BME280;18039;52.188;21.024;2023-04-01T00:23:55;75121.53;;;-141.45;100.00
31403;BME280;18039;52.188;21.024;2023-04-01T00:26:22;75117.47;;;-141.45;100.00
31403;BME280;18039;52.188;21.024;2023-04-01T00:28:50;75117.47;;;-141.45;100.00
31403;BME280;18039;52.188;21.024;2023-04-01T00:31:18;75109.38;;;-141.45;100.00
31403;BME280;18039;52.188;21.024;2023-04-01T00:33:45;75109.38;;;-141.45;100.00
31403;BME280;18039;52.188;21.024;2023-04-01T00:36:18;75109.38;;;-141.45;100.00
31403;BME280;18039;52.188;21.024;2023-04-01T00:38:46;75113.44;;;-141.45;100.00
31403;BME280;18039;52.188;21.024;2023-04-01T00:41:15;75117.47;;;-141.45;100.00
31403;BME280;18039;52.188;21.024;2023-04-01T00:43:46;75113.44;;;-141.45;100.00
31403;BME280;18039;52.188;21.024;2023-04-01T00:46:14;75129.63;;;-141.45;100.00
31403;BME280;18039;52.188;21.024;2023-04-01T00:48:45;75129.63;;;-141.45;100.00
31403;BME280;18039;52.188;21.024;2023-04-01T00:51:16;75133.69;;;-141.45;100.00
31403;BME280;18039;52.188;21.024;2023-04-01T00:53:47;75127.63;;;-141.45;100.00
31403;BME280;18039;52.188;21.024;2023-04-01T00:56:17;75125.59;;;-141.45;100.00
31403;BME280;18039;52.188;21.024;2023-04-01T00:58:48;75121.53;;;-141.45;100.00
31403;BME280;18039;52.188;21.024;2023-04-01T01:01:17;75121.53;;;-141.45;100.00
31403;BME280;18039;52.188;21.024;2023-04-01T01:03:45;75119.50;;;-141.45;100.00
31403;BME280;18039;52.188;21.024;2023-04-01T01:06:23;75125.59;;;-141.45;100.00
31403;BME280;18039;52.188;21.024;2023-04-01T01:11:45;75117.47;;;-141.45;100.00
31403;BME280;18039;52.188;21.024;2023-04-01T01:14:59;75119.50;;;-141.45;100.00
31403;BME280;18039;52.188;21.024;2023-04-01T01:17:37;75113.44;;;-141.45;100.00
31403;BME280;18039;52.188;21.024;2023-04-01T01:37:22;75125.59;;;-141.45;100.00
31403;BME280;18039;52.188;21.024;2023-04-01T01:39:56;75125.59;;;-141.45;100.00
31403;BME280;18039;52.188;21.024;2023-04-01T01:42:26;75129.63;;;-141.45;100.00
31403;BME280;18039;52.188;21.024;2023-04-01T01:44:56;75125.59;;;-141.45;100.00
31403;BME280;18039;52.188;21.024;2023-04-01T01:47:25;75125.59;;;-141.45;100.00
31403;BME280;18039;52.188;21.024;2023-04-01T01:49:54;75125.59;;;-141.45;100.00
31403;BME280;18039;52.188;21.024;2023-04-01T01:52:23;75125.59;;;-141.45;100.00
31403;BME280;18039;52.188;21.024;2023-04-01T01:54:55;75125.59;;;-141.45;100.00
31403;BME280;18039;52.188;21.024;2023-04-01T01:57:29;75121.53;;;-141.45;100.00
31403;BME280;18039;52.188;21.024;2023-04-01T02:00:05;75125.59;;;-141.45;100.00
31403;BME280;18039;52.188;21.024;2023-04-01T02:02:41;75117.47;;;-141.45;100.00
31403;BME280;18039;52.188;21.024;2023-04-01T02:05:11;75121.53;;;-141.45;100.00
31403;BME280;18039;52.188;21.024;2023-04-01T02:07:46;75121.53;;;-141.45;100.00
31403;BME280;18039;52.188;21.024;2023-04-01T02:10:16;75121.53;;;-141.45;100.00
31403;BME280;18039;52.188;21.024;2023-04-01T02:12:46;75117.47;;;-141.45;100.00
31403;BME280;18039;52.188;21.024;2023-04-01T02:15:15;75121.53;;;-141.45;100.00
31403;BME280;18039;52.188;21.024;2023-04-01T02:17:44;75125.59;;;-141.45;100.00
31403;BME280;18039;52.188;21.024;2023-04-01T02:20:16;75133.69;;;-141.45;100.00
31403;BME280;18039;52.188;21.024;2023-04-01T02:22:48;75133.69;;;-141.45;100.00
31403;BME280;18039;52.188;21.024;2023-04-01T02:25:24;75133.69;;;-141.45;100.00
31403;BME280;18039;52.188;21.024;2023-04-01T02:27:53;75129.63;;;-141.45;100.00
31403;BME280;18039;52.188;21.024;2023-04-01T02:30:22;75117.47;;;-141.45;100.00
31403;BME280;18039;52.188;21.024;2023-04-01T02:32:50;75121.53;;;-141.45;100.00
31403;BME280;18039;52.188;21.024;2023-04-01T02:35:17;75121.53;;;-141.45;100.00
31403;BME280;18039;52.188;21.024;2023-04-01T02:37:45;75125.59;;;-141.45;100.00
31403;BME280;18039;52.188;21.024;2023-04-01T02:40:16;75117.47;;;-141.45;100.00
31403;BME280;18039;52.188;21.024;2023-04-01T02:42:44;75125.59;;;-141.45;100.00
31403;BME280;18039;52.188;21.024;2023-04-01T02:45:13;75133.69;;;-141.45;100.00
31403;BME280;18039;52.188;21.024;2023-04-01T02:47:41;75145.84;;;-141.45;100.00
31403;BME280;18039;52.188;21.024;2023-04-01T02:50:08;75149.91;;;-141.45;100.00
31403;BME280;18039;52.188;21.024;2023-04-01T02:52:37;75153.94;;;-141.45;100.00
31403;BME280;18039;52.188;21.024;2023-04-01T02:55:05;75155.97;;;-141.45;100.00
31403;BME280;18039;52.188;21.024;2023-04-01T02:57:32;75160.03;;;-141.45;100.00
31403;BME280;18039;52.188;21.024;2023-04-01T02:59:59;75166.09;;;-141.45;100.00
31403;BME280;18039;52.188;21.024;2023-04-01T03:02:27;75166.09;;;-141.45;100.00
31403;BME280;18039;52.188;21.024;2023-04-01T03:04:54;75170.16;;;-141.45;100.00
31403;BME280;18039;52.188;21.024;2023-04-01T03:07:22;75170.16;;;-141.45;100.00
31403;BME280;18039;52.188;21.024;2023-04-01T03:09:48;75170.16;;;-141.45;100.00
31403;BME280;18039;52.188;21.024;2023-04-01T03:12:16;75166.09;;;-141.45;100.00
31403;BME280;18039;52.188;21.024;2023-04-01T03:14:49;75162.06;;;-141.45;100.00
31403;BME280;18039;52.188;21.024;2023-04-01T03:17:16;75168.13;;;-141.45;100.00
31403;BME280;18039;52.188;21.024;2023-04-01T03:19:44;75162.06;;;-141.45;100.00
31403;BME280;18039;52.188;21.024;2023-04-01T03:22:11;75162.06;;;-141.45;100.00
31403;BME280;18039;52.188;21.024;2023-04-01T03:24:39;75166.09;;;-141.45;100.00
31403;BME280;18039;52.188;21.024;2023-04-01T03:27:06;75162.06;;;-141.45;100.00
31403;BME280;18039;52.188;21.024;2023-04-01T03:29:33;75153.94;;;-141.45;100.00
31403;BME280;18039;52.188;21.024;2023-04-01T03:32:00;75153.94;;;-141.45;100.00
31403;BME280;18039;52.188;21.024;2023-04-01T03:34:27;75162.06;;;-141.45;100.00
31403;BME280;18039;52.188;21.024;2023-04-01T03:36:54;75174.22;;;-141.45;100.00
31403;BME280;18039;52.188;21.024;2023-04-01T03:39:22;75178.28;;;-141.45;100.00
31403;BME280;18039;52.188;21.024;2023-04-01T03:41:49;75176.25;;;-141.45;100.00
31403;BME280;18039;52.188;21.024;2023-04-01T03:44:17;75178.28;;;-141.45;100.00
31403;BME280;18039;52.188;21.024;2023-04-01T03:46:47;75186.38;;;-141.45;100.00
31403;BME280;18039;52.188;21.024;2023-04-01T03:49:14;75186.38;;;-141.45;100.00
31403;BME280;18039;52.188;21.024;2023-04-01T03:51:43;75188.41;;;-141.45;100.00
31403;BME280;18039;52.188;21.024;2023-04-01T03:54:10;75190.44;;;-141.45;100.00
31403;BME280;18039;52.188;21.024;2023-04-01T03:56:38;75188.41;;;-141.45;100.00
31403;BME280;18039;52.188;21.024;2023-04-01T03:59:07;75194.47;;;-141.45;100.00
31403;BME280;18039;52.188;21.024;2023-04-01T04:01:34;75190.44;;;-141.45;100.00
31403;BME280;18039;52.188;21.024;2023-04-01T04:04:02;75188.41;;;-141.45;100.00
31403;BME280;18039;52.188;21.024;2023-04-01T04:06:29;75188.41;;;-141.45;100.00
31403;BME280;18039;52.188;21.024;2023-04-01T04:08:56;75182.31;;;-141.45;100.00
31403;BME280;18039;52.188;21.024;2023-04-01T04:11:24;75184.34;;;-141.45;100.00
31403;BME280;18039;52.188;21.024;2023-04-01T04:13:52;75182.31;;;-141.45;100.00
31403;BME280;18039;52.188;21.024;2023-04-01T04:16:20;75194.47;;;-141.45;100.00
31403;BME280;18039;52.188;21.024;2023-04-01T04:18:54;75190.44;;;-141.45;100.00
31403;BME280;18039;52.188;21.024;2023-04-01T04:21:22;75190.44;;;-141.45;100.00
31403;BME280;18039;52.188;21.024;2023-04-01T04:23:50;75202.59;;;-141.45;100.00
31403;BME280;18039;52.188;21.024;2023-04-01T04:26:19;75194.47;;;-141.45;100.00
31403;BME280;18039;52.188;21.024;2023-04-01T04:28:54;75194.47;;;-141.45;100.00
31403;BME280;18039;52.188;21.024;2023-04-01T04:31:23;75194.47;;;-141.45;100.00
31403;BME280;18039;52.188;21.024;2023-04-01T04:33:52;75188.41;;;-141.45;100.00
31403;BME280;18039;52.188;21.024;2023-04-01T04:36:21;75198.53;;;-141.45;100.00
31403;BME280;18039;52.188;21.024;2023-04-01T04:38:50;75192.44;;;-141.45;100.00
31403;BME280;18039;52.188;21.024;2023-04-01T04:41:18;75194.47;;;-141.45;100.00
31403;BME280;18039;52.188;21.024;2023-04-01T04:43:53;75190.44;;;-141.45;100.00
31403;BME280;18039;52.188;21.024;2023-04-01T04:46:23;75194.47;;;-141.45;100.00
31403;BME280;18039;52.188;21.024;2023-04-01T04:48:56;75194.47;;;-141.45;100.00
31403;BME280;18039;52.188;21.024;2023-04-01T04:51:24;75190.44;;;-141.45;100.00
31403;BME280;18039;52.188;21.024;2023-04-01T04:53:52;75194.47;;;-141.45;100.00
31403;BME280;18039;52.188;21.024;2023-04-01T04:56:27;75184.34;;;-141.45;100.00
31403;BME280;18039;52.188;21.024;2023-04-01T04:59:06;75186.38;;;-141.45;100.00
31403;BME280;18039;52.188;21.024;2023-04-01T05:01:50;75182.31;;;-141.45;100.00
31403;BME280;18039;52.188;21.024;2023-04-01T05:04:17;75198.53;;;-141.45;100.00
31403;BME280;18039;52.188;21.024;2023-04-01T05:06:45;75198.53;;;-141.45;100.00
31403;BME280;18039;52.188;21.024;2023-04-01T05:09:13;75198.53;;;-141.45;100.00
31403;BME280;18039;52.188;21.024;2023-04-01T05:11:40;75190.44;;;-141.45;100.00
31403;BME280;18039;52.188;21.024;2023-04-01T05:14:15;75194.47;;;-141.45;100.00
31403;BME280;18039;52.188;21.024;2023-04-01T05:16:51;75188.41;;;-141.45;100.00
31403;BME280;18039;52.188;21.024;2023-04-01T05:19:18;75182.31;;;-141.45;100.00
31403;BME280;18039;52.188;21.024;2023-04-01T05:21:47;75190.44;;;-141.45;100.00
31403;BME280;18039;52.188;21.024;2023-04-01T05:24:15;75186.38;;;-141.45;100.00
31403;BME280;18039;52.188;21.024;2023-04-01T05:26:43;75182.31;;;-141.45;100.00
31403;BME280;18039;52.188;21.024;2023-04-01T05:29:11;75190.44;;;-141.45;100.00
31403;BME280;18039;52.188;21.024;2023-04-01T05:31:40;75190.44;;;-141.45;100.00
31403;BME280;18039;52.188;21.024;2023-04-01T05:34:08;75190.44;;;-141.45;100.00
31403;BME280;18039;52.188;21.024;2023-04-01T05:36:35;75178.28;;;-141.45;100.00
31403;BME280;18039;52.188;21.024;2023-04-01T05:39:02;75176.25;;;-141.45;100.00
31403;BME280;18039;52.188;21.024;2023-04-01T05:41:30;75158.00;;;-141.45;100.00
31403;BME280;18039;52.188;21.024;2023-04-01T05:43:57;75166.09;;;-141.45;100.00
31403;BME280;18039;52.188;21.024;2023-04-01T05:46:40;75170.16;;;-141.45;100.00
31403;BME280;18039;52.188;21.024;2023-04-01T05:49:27;75174.22;;;-141.45;100.00
31403;BME280;18039;52.188;21.024;2023-04-01T05:51:55;75186.38;;;-141.45;100.00
31403;BME280;18039;52.188;21.024;2023-04-01T05:54:23;75170.16;;;-141.45;100.00
31403;BME280;18039;52.188;21.024;2023-04-01T05:56:50;75166.09;;;-141.45;100.00
31403;BME280;18039;52.188;21.024;2023-04-01T05:59:19;75153.94;;;-141.45;100.00
31403;BME280;18039;52.188;21.024;2023-04-01T06:01:47;75133.69;;;-141.45;100.00
31403;BME280;18039;52.188;21.024;2023-04-01T06:04:17;75125.59;;;-141.45;100.00
31403;BME280;18039;52.188;21.024;2023-04-01T06:06:45;75125.59;;;-141.45;100.00
31403;BME280;18039;52.188;21.024;2023-04-01T06:09:19;75123.56;;;-141.45;100.00
31403;BME280;18039;52.188;21.024;2023-04-01T06:20:28;75125.59;;;-141.45;100.00
31403;BME280;18039;52.188;21.024;2023-04-01T06:26:09;75093.16;;;-141.45;100.00
31403;BME280;18039;52.188;21.024;2023-04-01T06:34:04;75076.97;;;-141.45;100.00
31403;BME280;18039;52.188;21.024;2023-04-01T06:50:44;75101.28;;;-141.45;100.00
31403;BME280;18039;52.188;21.024;2023-04-01T06:54:05;75097.22;;;-141.45;100.00
31403;BME280;18039;52.188;21.024;2023-04-01T06:56:56;75081.00;;;-141.45;100.00
31403;BME280;18039;52.188;21.024;2023-04-01T06:59:28;75076.97;;;-141.45;100.00
31403;BME280;18039;52.188;21.024;2023-04-01T07:02:18;75062.78;;;-141.45;100.00
31403;BME280;18039;52.188;21.024;2023-04-01T07:04:51;75060.75;;;-141.45;100.00
31403;BME280;18039;52.188;21.024;2023-04-01T07:07:39;75072.91;;;-141.45;100.00
31403;BME280;18039;52.188;21.024;2023-04-01T07:10:30;75081.00;;;-141.45;100.00
31403;BME280;18039;52.188;21.024;2023-04-01T07:13:21;75089.13;;;-141.45;100.00
31403;BME280;18039;52.188;21.024;2023-04-01T07:21:41;75105.31;;;-141.45;100.00
31403;BME280;18039;52.188;21.024;2023-04-01T07:24:36;75099.25;;;-141.45;100.00
31403;BME280;18039;52.188;21.024;2023-04-01T07:27:13;75117.47;;;-141.45;100.00
31403;BME280;18039;52.188;21.024;2023-04-01T07:29:46;75109.38;;;-141.45;100.00
31403;BME280;18039;52.188;21.024;2023-04-01T07:37:34;75129.63;;;-141.45;100.00
31403;BME280;18039;52.188;21.024;2023-04-01T07:40:24;75129.63;;;-141.45;100.00
31403;BME280;18039;52.188;21.024;2023-04-01T07:43:07;75117.47;;;-141.45;100.00
31403;BME280;18039;52.188;21.024;2023-04-01T07:48:33;75095.19;;;-141.45;100.00
31403;BME280;18039;52.188;21.024;2023-04-01T07:59:18;75024.28;;;-141.45;100.00
31403;BME280;18039;52.188;21.024;2023-04-01T08:10:39;75012.13;;;-141.45;100.00
31403;BME280;18039;52.188;21.024;2023-04-01T08:19:25;74987.81;;;-141.45;99.44
31403;BME280;18039;52.188;21.024;2023-04-01T08:22:02;74971.59;;;-141.45;99.84
31403;BME280;18039;52.188;21.024;2023-04-01T08:24:44;74943.22;;;-141.45;99.17
31403;BME280;18039;52.188;21.024;2023-04-01T08:27:26;74943.22;;;-141.45;98.24
31403;BME280;18039;52.188;21.024;2023-04-01T08:30:20;74943.22;;;-141.45;96.95
31403;BME280;18039;52.188;21.024;2023-04-01T08:33:27;74955.38;;;-141.45;95.12
31403;BME280;18039;52.188;21.024;2023-04-01T08:36:13;74951.34;;;-141.45;96.40
31403;BME280;18039;52.188;21.024;2023-04-01T08:38:54;74975.66;;;-141.45;95.10
31403;BME280;18039;52.188;21.024;2023-04-01T08:47:46;75032.38;;;-141.45;96.75
31403;BME280;18039;52.188;21.024;2023-04-01T08:53:38;75062.78;;;-141.45;96.64
31403;BME280;18039;52.188;21.024;2023-04-01T08:56:40;75097.22;;;-141.45;97.08
31403;BME280;18039;52.188;21.024;2023-04-01T09:22:41;75044.53;;;-141.45;92.42
31403;BME280;18039;52.188;21.024;2023-04-01T09:28:27;75072.91;;;-141.45;92.90
31403;BME280;18039;52.188;21.024;2023-04-01T09:34:49;75085.06;;;-141.45;94.08
31403;BME280;18039;52.188;21.024;2023-04-01T09:37:17;75109.38;;;-141.45;94.34
31403;BME280;18039;52.188;21.024;2023-04-01T09:51:35;75186.38;;;-141.45;98.79
31403;BME280;18039;52.188;21.024;2023-04-01T10:08:20;75210.69;;;-141.45;100.00
31403;BME280;18039;52.188;21.024;2023-04-01T10:23:00;75182.31;;;-141.45;100.00
31403;BME280;18039;52.188;21.024;2023-04-01T10:26:05;75184.34;;;-141.45;100.00
31403;BME280;18039;52.188;21.024;2023-04-01T10:52:08;75137.75;;;-141.45;100.00
31403;BME280;18039;52.188;21.024;2023-04-01T11:08:11;75133.69;;;-141.45;100.00
31403;BME280;18039;52.188;21.024;2023-04-01T11:13:55;75109.38;;;-141.45;100.00
31403;BME280;18039;52.188;21.024;2023-04-01T11:30:53;75020.22;;;-141.45;95.32
31403;BME280;18039;52.188;21.024;2023-04-01T11:42:22;74943.22;;;-141.45;94.66
31403;BME280;18039;52.188;21.024;2023-04-01T11:45:32;74927.03;;;-141.45;92.99
31403;BME280;18039;52.188;21.024;2023-04-01T11:53:48;74918.91;;;-141.45;91.44
31403;BME280;18039;52.188;21.024;2023-04-01T11:56:28;74922.97;;;-141.45;90.88
31403;BME280;18039;52.188;21.024;2023-04-01T11:59:37;74922.97;;;-141.45;91.34
31403;BME280;18039;52.188;21.024;2023-04-01T12:05:15;74894.59;;;-141.45;91.74
31403;BME280;18039;52.188;21.024;2023-04-01T12:10:48;74878.41;;;-141.45;91.05
31403;BME280;18039;52.188;21.024;2023-04-01T12:19:15;74906.75;;;-141.45;87.90
31403;BME280;18039;52.188;21.024;2023-04-01T12:24:53;74882.44;;;-141.45;89.94
31403;BME280;18039;52.188;21.024;2023-04-01T12:27:41;74874.34;;;-141.45;86.52
31403;BME280;18039;52.188;21.024;2023-04-01T12:30:30;74862.19;;;-141.45;86.98
31403;BME280;18039;52.188;21.024;2023-04-01T12:33:59;74837.88;;;-141.45;86.69
31403;BME280;18039;52.188;21.024;2023-04-01T12:50:50;74716.31;;;-141.45;76.36
31403;BME280;18039;52.188;21.024;2023-04-01T13:07:57;74669.72;;;-141.45;73.22
31403;BME280;18039;52.188;21.024;2023-04-01T13:21:25;74803.44;;;-141.45;77.03
31403;BME280;18039;52.188;21.024;2023-04-01T13:27:18;74890.56;;;-141.45;78.59
31403;BME280;18039;52.188;21.024;2023-04-01T13:30:00;74914.88;;;-141.45;79.58
31403;BME280;18039;52.188;21.024;2023-04-01T13:35:42;74955.38;;;-141.45;81.10
31403;BME280;18039;52.188;21.024;2023-04-01T13:49:44;75129.63;;;-141.45;94.00
31403;BME280;18039;52.188;21.024;2023-04-01T13:52:37;75182.31;;;-141.45;97.78
31403;BME280;18039;52.188;21.024;2023-04-01T13:58:04;75263.38;;;-141.45;100.00
31403;BME280;18039;52.188;21.024;2023-04-01T14:01:08;75277.56;;;-141.45;100.00
31403;BME280;18039;52.188;21.024;2023-04-01T14:04:19;75275.53;;;-141.45;100.00
31403;BME280;18039;52.188;21.024;2023-04-01T14:15:48;75247.16;;;-141.45;100.00
31403;BME280;18039;52.188;21.024;2023-04-01T14:24:20;75198.53;;;-141.45;100.00
31403;BME280;18039;52.188;21.024;2023-04-01T14:27:13;75222.84;;;-141.45;100.00
31403;BME280;18039;52.188;21.024;2023-04-01T14:30:08;75230.94;;;-141.45;100.00
31403;BME280;18039;52.188;21.024;2023-04-01T14:32:56;75243.09;;;-141.45;100.00
31403;BME280;18039;52.188;21.024;2023-04-01T14:38:34;75269.44;;;-141.45;100.00
31403;BME280;18039;52.188;21.024;2023-04-01T14:49:39;75322.13;;;-141.45;100.00
31403;BME280;18039;52.188;21.024;2023-04-01T14:52:15;75332.28;;;-141.45;100.00
31403;BME280;18039;52.188;21.024;2023-04-01T14:54:50;75330.25;;;-141.45;100.00
31403;BME280;18039;52.188;21.024;2023-04-01T14:57:24;75338.34;;;-141.45;100.00
31403;BME280;18039;52.188;21.024;2023-04-01T15:02:55;75352.53;;;-141.45;100.00
31403;BME280;18039;52.188;21.024;2023-04-01T15:08:36;75364.69;;;-141.45;100.00
31403;BME280;18039;52.188;21.024;2023-04-01T15:23:02;75421.44;;;-141.45;100.00
31403;BME280;18039;52.188;21.024;2023-04-01T15:31:32;75435.63;;;-141.45;100.00
31403;BME280;18039;52.188;21.024;2023-04-01T15:40:22;75466.00;;;-141.45;100.00
31403;BME280;18039;52.188;21.024;2023-04-01T15:45:36;75466.00;;;-141.45;100.00
31403;BME280;18039;52.188;21.024;2023-04-01T15:48:29;75478.16;;;-141.45;100.00
31403;BME280;18039;52.188;21.024;2023-04-01T15:53:51;75474.13;;;-141.45;100.00
31403;BME280;18039;52.188;21.024;2023-04-01T16:01:59;75494.38;;;-141.45;100.00
31403;BME280;18039;52.188;21.024;2023-04-01T16:04:43;75506.53;;;-141.45;100.00
31403;BME280;18039;52.188;21.024;2023-04-01T16:10:07;75506.53;;;-141.45;100.00
31403;BME280;18039;52.188;21.024;2023-04-01T16:12:51;75510.59;;;-141.45;100.00
31403;BME280;18039;52.188;21.024;2023-04-01T16:20:57;75498.44;;;-141.45;100.00
31403;BME280;18039;52.188;21.024;2023-04-01T16:23:37;75502.50;;;-141.45;100.00
31403;BME280;18039;52.188;21.024;2023-04-01T16:29:12;75506.53;;;-141.45;100.00
31403;BME280;18039;52.188;21.024;2023-04-01T16:32:04;75494.38;;;-141.45;100.00
31403;BME280;18039;52.188;21.024;2023-04-01T16:34:43;75506.53;;;-141.45;100.00
31403;BME280;18039;52.188;21.024;2023-04-01T16:37:32;75500.47;;;-141.45;100.00
31403;BME280;18039;52.188;21.024;2023-04-01T16:48:57;75541.00;;;-141.45;100.00
31403;BME280;18039;52.188;21.024;2023-04-01T16:51:34;75543.00;;;-141.45;100.00
31403;BME280;18039;52.188;21.024;2023-04-01T16:54:14;75547.06;;;-141.45;100.00
31403;BME280;18039;52.188;21.024;2023-04-01T16:57:10;75559.22;;;-141.45;100.00
31403;BME280;18039;52.188;21.024;2023-04-01T16:59:47;75563.28;;;-141.45;100.00
31403;BME280;18039;52.188;21.024;2023-04-01T17:02:17;75575.44;;;-141.45;100.00
31403;BME280;18039;52.188;21.024;2023-04-01T17:10:25;75603.81;;;-141.45;100.00
31403;BME280;18039;52.188;21.024;2023-04-01T17:21:09;75607.88;;;-141.45;100.00
31403;BME280;18039;52.188;21.024;2023-04-01T17:23:48;75611.91;;;-141.45;100.00
31403;BME280;18039;52.188;21.024;2023-04-01T17:26:20;75611.91;;;-141.45;100.00
31403;BME280;18039;52.188;21.024;2023-04-01T17:31:36;75620.03;;;-141.45;100.00
31403;BME280;18039;52.188;21.024;2023-04-01T17:34:18;75624.06;;;-141.45;100.00
31403;BME280;18039;52.188;21.024;2023-04-01T17:43:29;75632.19;;;-141.45;100.00
31403;BME280;18039;52.188;21.024;2023-04-01T17:48:59;75640.28;;;-141.45;100.00
31403;BME280;18039;52.188;21.024;2023-04-01T17:51:33;75640.28;;;-141.45;100.00
31403;BME280;18039;52.188;21.024;2023-04-01T17:59:32;75658.53;;;-141.45;100.00
31403;BME280;18039;52.188;21.024;2023-04-01T18:10:57;75656.50;;;-141.45;100.00
31403;BME280;18039;52.188;21.024;2023-04-01T18:18:54;75668.66;;;-141.45;100.00
31403;BME280;18039;52.188;21.024;2023-04-01T18:21:49;75686.91;;;-141.45;100.00
31403;BME280;18039;52.188;21.024;2023-04-01T18:24:41;75697.03;;;-141.45;100.00
31403;BME280;18039;52.188;21.024;2023-04-01T18:32:34;75725.41;;;-141.45;100.00
31403;BME280;18039;52.188;21.024;2023-04-01T18:35:27;75743.66;;;-141.45;100.00
31403;BME280;18039;52.188;21.024;2023-04-01T18:38:31;75753.78;;;-141.45;100.00
31403;BME280;18039;52.188;21.024;2023-04-01T18:41:13;75753.78;;;-141.45;100.00
31403;BME280;18039;52.188;21.024;2023-04-01T18:49:29;75761.88;;;-141.45;99.90
31403;BME280;18039;52.188;21.024;2023-04-01T18:52:02;75774.03;;;-141.45;99.90
31403;BME280;18039;52.188;21.024;2023-04-01T18:54:33;75765.94;;;-141.45;99.05
31403;BME280;18039;52.188;21.024;2023-04-01T18:57:13;75774.03;;;-141.45;99.09
31403;BME280;18039;52.188;21.024;2023-04-01T18:59:43;75770.00;;;-141.45;99.95
31403;BME280;18039;52.188;21.024;2023-04-01T19:05:20;75782.16;;;-141.45;99.70
31403;BME280;18039;52.188;21.024;2023-04-01T19:07:55;75790.25;;;-141.45;99.57
31403;BME280;18039;52.188;21.024;2023-04-01T19:26:37;75818.63;;;-141.45;100.00
31403;BME280;18039;52.188;21.024;2023-04-01T19:38:02;75838.91;;;-141.45;99.75
31403;BME280;18039;52.188;21.024;2023-04-01T19:45:54;75842.94;;;-141.45;99.61
31403;BME280;18039;52.188;21.024;2023-04-01T19:49:02;75853.09;;;-141.45;99.76
31403;BME280;18039;52.188;21.024;2023-04-01T19:51:43;75851.06;;;-141.45;99.75
31403;BME280;18039;52.188;21.024;2023-04-01T20:00:14;75871.31;;;-141.45;99.52
31403;BME280;18039;52.188;21.024;2023-04-01T20:02:52;75867.28;;;-141.45;99.55
31403;BME280;18039;52.188;21.024;2023-04-01T20:19:27;75883.47;;;-141.45;99.80
31403;BME280;18039;52.188;21.024;2023-04-01T20:21:58;75883.47;;;-141.45;100.00
31403;BME280;18039;52.188;21.024;2023-04-01T20:24:41;75887.53;;;-141.45;100.00
31403;BME280;18039;52.188;21.024;2023-04-01T20:27:16;75891.59;;;-141.45;100.00
31403;BME280;18039;52.188;21.024;2023-04-01T20:36:12;75919.97;;;-141.45;100.00
31403;BME280;18039;52.188;21.024;2023-04-01T20:39:18;75924.00;;;-141.45;100.00
31403;BME280;18039;52.188;21.024;2023-04-01T20:44:44;75940.22;;;-141.45;100.00
31403;BME280;18039;52.188;21.024;2023-04-01T20:51:03;75948.34;;;-141.45;100.00
31403;BME280;18039;52.188;21.024;2023-04-01T20:53:31;75964.56;;;-141.45;100.00
31403;BME280;18039;52.188;21.024;2023-04-01T20:56:27;75964.56;;;-141.45;100.00
31403;BME280;18039;52.188;21.024;2023-04-01T20:59:10;75958.47;;;-141.45;100.00
31403;BME280;18039;52.188;21.024;2023-04-01T21:05:19;75972.66;;;-141.45;100.00
31403;BME280;18039;52.188;21.024;2023-04-01T21:11:11;75980.75;;;-141.45;100.00
31403;BME280;18039;52.188;21.024;2023-04-01T21:16:41;75992.94;;;-141.45;100.00
31403;BME280;18039;52.188;21.024;2023-04-01T21:22:08;76009.13;;;-141.45;100.00
31403;BME280;18039;52.188;21.024;2023-04-01T21:30:16;76017.25;;;-141.45;99.52
31403;BME280;18039;52.188;21.024;2023-04-01T21:33:08;76021.31;;;-141.45;98.24
31403;BME280;18039;52.188;21.024;2023-04-01T21:36:19;76025.34;;;-141.45;98.21
31403;BME280;18039;52.188;21.024;2023-04-01T21:44:37;76033.47;;;-141.45;97.46
31403;BME280;18039;52.188;21.024;2023-04-01T21:47:52;76033.47;;;-141.45;97.05
31403;BME280;18039;52.188;21.024;2023-04-01T21:53:32;76045.63;;;-141.45;97.77
31403;BME280;18039;52.188;21.024;2023-04-01T21:56:16;76049.69;;;-141.45;97.69
31403;BME280;18039;52.188;21.024;2023-04-01T21:59:12;76053.72;;;-141.45;98.14
31403;BME280;18039;52.188;21.024;2023-04-01T22:07:15;76051.69;;;-141.45;97.73
31403;BME280;18039;52.188;21.024;2023-04-01T22:15:23;76069.94;;;-141.45;97.89
31403;BME280;18039;52.188;21.024;2023-04-01T22:18:08;76065.88;;;-141.45;97.54
31403;BME280;18039;52.188;21.024;2023-04-01T22:20:50;76061.84;;;-141.45;97.41
31403;BME280;18039;52.188;21.024;2023-04-01T22:23:36;76065.88;;;-141.45;97.36
31403;BME280;18039;52.188;21.024;2023-04-01T22:26:19;76071.97;;;-141.45;97.06